Time,TemperatureF,DewpointF,PressureIn,WindDirection,WindDirectionDegrees,WindSpeedMPH,WindSpeedGustMPH,Humidity,HourlyPrecipIn,Conditions,Clouds,dailyrainin,SolarRadiationWatts/m^2,SoftwareType,DateUTC
2013-02-25 00:02:00,57.0,39.0,29.65,South,184,5.0,7.0,50,0.00,,,0.00,-60.000000,,2013-02-25 06:02:00,
2013-02-25 00:11:00,57.0,39.0,29.65,South,184,5.0,7.0,50,0.00,,,0.00,-60.000000,,2013-02-25 06:11:00,
2013-02-25 00:42:00,56.0,39.0,29.61,South,184,5.0,7.0,54,0.00,,,0.00,-59.000000,,2013-02-25 06:42:00,
2013-02-25 00:52:00,56.0,39.0,29.61,South,184,5.0,7.0,54,0.00,,,0.00,-59.000000,,2013-02-25 06:52:00,
2013-02-25 01:01:00,56.0,39.0,29.61,South,184,5.0,7.0,54,0.00,,,0.00,-59.000000,,2013-02-25 07:01:00,
2013-02-25 01:11:00,56.0,39.0,29.61,South,184,5.0,7.0,54,0.00,,,0.00,-59.000000,,2013-02-25 07:11:00,
2013-02-25 01:42:00,58.0,41.0,29.60,South,184,9.0,10.0,53,0.00,,,0.00,-13.000000,,2013-02-25 07:42:00,
2013-02-25 01:52:00,58.0,41.0,29.60,South,184,9.0,10.0,53,0.00,,,0.00,-13.000000,,2013-02-25 07:52:00,
2013-02-25 02:01:00,58.0,41.0,29.60,South,184,9.0,10.0,53,0.00,,,0.00,-13.000000,,2013-02-25 08:01:00,
2013-02-25 02:11:00,58.0,41.0,29.60,South,184,9.0,10.0,53,0.00,,,0.00,-13.000000,,2013-02-25 08:11:00,
2013-02-25 02:41:00,57.0,41.0,29.62,South,183,5.0,5.0,55,0.00,,,0.00,-3.000000,,2013-02-25 08:41:00,
2013-02-25 02:52:00,57.0,41.0,29.62,South,183,5.0,5.0,55,0.00,,,0.00,-3.000000,,2013-02-25 08:52:00,
2013-02-25 03:01:00,57.0,41.0,29.62,South,183,5.0,5.0,55,0.00,,,0.00,-3.000000,,2013-02-25 09:01:00,
2013-02-25 03:12:00,57.0,41.0,29.62,South,183,5.0,5.0,55,0.00,,,0.00,-3.000000,,2013-02-25 09:12:00,
2013-02-25 03:32:00,56.0,42.0,29.64,South,183,2.0,2.0,58,0.00,,,0.00,-10.000000,,2013-02-25 09:32:00,
2013-02-25 03:42:00,56.0,42.0,29.64,South,183,2.0,2.0,58,0.00,,,0.00,-10.000000,,2013-02-25 09:42:00,
2013-02-25 03:52:00,56.0,42.0,29.64,South,183,2.0,2.0,58,0.00,,,0.00,-10.000000,,2013-02-25 09:52:00,
2013-02-25 04:01:00,56.0,42.0,29.64,South,183,2.0,2.0,58,0.00,,,0.00,-10.000000,,2013-02-25 10:01:00,
2013-02-25 04:11:00,56.0,42.0,29.64,South,183,2.0,2.0,58,0.00,,,0.00,-10.000000,,2013-02-25 10:11:00,
2013-02-25 04:42:00,52.0,47.0,29.62,South,184,4.0,4.0,83,0.01,,,-99.99,-55.000000,,2013-02-25 10:42:00,
2013-02-25 04:52:00,52.0,47.0,29.62,South,184,4.0,4.0,83,0.01,,,-99.99,-55.000000,,2013-02-25 10:52:00,
2013-02-25 05:01:00,52.0,47.0,29.62,South,184,4.0,4.0,83,0.01,,,-99.99,-55.000000,,2013-02-25 11:01:00,
2013-02-25 05:11:00,52.0,47.0,29.62,South,184,4.0,4.0,83,0.01,,,-99.99,-55.000000,,2013-02-25 11:11:00,
2013-02-25 05:42:00,52.0,44.0,29.59,South,185,5.0,7.0,76,0.00,,,0.01,-7.000000,,2013-02-25 11:42:00,
2013-02-25 05:52:00,52.0,44.0,29.59,South,185,5.0,7.0,76,0.00,,,0.01,-7.000000,,2013-02-25 11:52:00,
2013-02-25 06:02:00,52.0,44.0,29.59,South,185,5.0,7.0,76,0.00,,,0.01,-7.000000,,2013-02-25 12:02:00,
2013-02-25 06:11:00,52.0,44.0,29.59,South,185,5.0,7.0,76,0.00,,,0.01,-7.000000,,2013-02-25 12:11:00,
2013-02-25 06:42:00,52.0,43.0,29.56,South,187,9.0,9.0,72,0.00,,,0.01,-70.000000,,2013-02-25 12:42:00,
2013-02-25 06:55:00,52.0,43.0,29.56,South,187,9.0,9.0,72,0.00,,,0.01,-70.000000,,2013-02-25 12:55:00,
2013-02-25 07:02:00,52.0,43.0,29.56,South,187,9.0,9.0,72,0.00,,,0.01,-70.000000,,2013-02-25 13:02:00,
2013-02-25 07:12:00,52.0,43.0,29.56,South,187,9.0,9.0,72,0.00,,,0.01,-70.000000,,2013-02-25 13:12:00,
2013-02-25 07:15:00,52.0,43.0,29.56,South,186,7.0,7.0,74,0.00,,,0.01,-69.000000,,2013-02-25 13:15:00,
2013-02-25 07:42:00,52.0,43.0,29.56,South,186,7.0,7.0,74,0.00,,,0.01,-69.000000,,2013-02-25 13:42:00,
2013-02-25 07:52:00,52.0,43.0,29.56,South,186,7.0,7.0,74,0.00,,,0.01,-69.000000,,2013-02-25 13:52:00,
2013-02-25 08:03:00,52.0,43.0,29.56,South,186,7.0,7.0,74,0.00,,,0.01,-69.000000,,2013-02-25 14:03:00,
2013-02-25 08:42:00,51.0,46.0,29.59,South,186,2.0,2.0,83,0.01,,,0.02,3.000000,,2013-02-25 14:42:00,
2013-02-25 08:52:00,51.0,46.0,29.59,South,186,2.0,2.0,83,0.01,,,0.02,3.000000,,2013-02-25 14:52:00,
2013-02-25 09:02:00,51.0,46.0,29.59,South,186,2.0,2.0,83,0.01,,,0.02,3.000000,,2013-02-25 15:02:00,
2013-02-25 09:11:00,51.0,46.0,-100.00,South,186,2.0,2.0,83,0.01,,,0.02,3.000000,,2013-02-25 15:11:00,
2013-02-25 09:42:00,54.0,47.0,29.56,South,184,5.0,5.0,77,0.00,,,0.02,89.000000,,2013-02-25 15:42:00,
2013-02-25 09:52:00,54.0,47.0,29.56,South,184,5.0,5.0,77,0.00,,,0.02,89.000000,,2013-02-25 15:52:00,
2013-02-25 10:02:00,54.0,47.0,29.56,South,184,5.0,5.0,77,0.00,,,0.02,89.000000,,2013-02-25 16:02:00,
2013-02-25 10:11:00,54.0,47.0,29.56,South,184,5.0,5.0,77,0.00,,,0.02,89.000000,,2013-02-25 16:11:00,
2013-02-25 10:42:00,54.0,48.0,29.56,South,183,9.0,10.0,79,0.00,,,0.02,15.000000,,2013-02-25 16:42:00,
2013-02-25 10:52:00,54.0,48.0,29.56,South,183,9.0,10.0,79,0.00,,,0.02,15.000000,,2013-02-25 16:52:00,
2013-02-25 11:01:00,54.0,48.0,29.56,South,183,9.0,10.0,79,0.00,,,0.02,15.000000,,2013-02-25 17:01:00,
2013-02-25 11:11:00,54.0,48.0,29.56,South,183,9.0,10.0,79,0.00,,,0.02,15.000000,,2013-02-25 17:11:00,
2013-02-25 11:42:00,52.0,40.0,29.56,South,183,12.0,12.0,63,0.00,,,0.02,405.000000,,2013-02-25 17:42:00,
2013-02-25 11:52:00,52.0,40.0,29.56,South,183,12.0,12.0,63,0.00,,,0.02,405.000000,,2013-02-25 17:52:00,
2013-02-25 12:01:00,52.0,40.0,29.56,South,183,12.0,12.0,63,0.00,,,0.02,405.000000,,2013-02-25 18:01:00,
2013-02-25 12:12:00,52.0,40.0,29.56,South,183,12.0,12.0,63,0.00,,,0.02,405.000000,,2013-02-25 18:12:00,
2013-02-25 12:42:00,54.0,37.0,29.56,South,182,5.0,7.0,53,0.00,,,0.02,591.000000,,2013-02-25 18:42:00,
2013-02-25 12:52:00,54.0,37.0,29.56,South,182,5.0,7.0,53,0.00,,,0.02,591.000000,,2013-02-25 18:52:00,
2013-02-25 13:01:00,54.0,37.0,29.56,South,182,5.0,7.0,53,0.00,,,0.02,591.000000,,2013-02-25 19:01:00,
2013-02-25 13:11:00,54.0,37.0,29.56,South,182,5.0,7.0,53,0.00,,,0.02,591.000000,,2013-02-25 19:11:00,
2013-02-25 13:42:00,57.0,33.0,29.52,South,180,10.0,10.0,40,0.00,,,0.02,391.000000,,2013-02-25 19:42:00,
2013-02-25 13:52:00,57.0,33.0,29.52,South,180,10.0,10.0,40,0.00,,,0.02,391.000000,,2013-02-25 19:52:00,
2013-02-25 14:01:00,57.0,33.0,29.52,South,180,10.0,10.0,40,0.00,,,0.02,391.000000,,2013-02-25 20:01:00,
2013-02-25 14:11:00,57.0,33.0,29.52,South,180,10.0,10.0,40,0.00,,,0.02,391.000000,,2013-02-25 20:11:00,
2013-02-25 14:42:00,56.0,32.0,29.49,South,180,7.0,9.0,40,0.00,,,0.02,91.000000,,2013-02-25 20:42:00,
2013-02-25 14:52:00,56.0,32.0,29.49,South,180,7.0,9.0,40,0.00,,,0.02,91.000000,,2013-02-25 20:52:00,
2013-02-25 15:01:00,56.0,32.0,29.49,South,180,7.0,9.0,40,0.00,,,0.02,91.000000,,2013-02-25 21:01:00,
2013-02-25 15:11:00,56.0,32.0,29.49,South,180,7.0,9.0,40,0.00,,,0.02,91.000000,,2013-02-25 21:11:00,
2013-02-25 15:42:00,54.0,26.0,29.49,South,180,15.0,19.0,34,0.00,,,0.02,324.000000,,2013-02-25 21:42:00,
2013-02-25 15:52:00,54.0,26.0,29.49,South,180,15.0,19.0,34,0.00,,,0.02,324.000000,,2013-02-25 21:52:00,
2013-02-25 16:01:00,54.0,26.0,29.49,South,180,15.0,19.0,34,0.00,,,0.02,324.000000,,2013-02-25 22:01:00,
2013-02-25 16:11:00,54.0,26.0,29.49,South,180,15.0,19.0,34,0.00,,,0.02,324.000000,,2013-02-25 22:11:00,
2013-02-25 16:42:00,50.0,27.0,29.50,South,181,9.0,14.0,41,0.00,,,0.02,133.000000,,2013-02-25 22:42:00,
2013-02-25 16:52:00,50.0,27.0,29.50,South,181,9.0,14.0,41,0.00,,,0.02,133.000000,,2013-02-25 22:52:00,
2013-02-25 17:01:00,50.0,27.0,29.50,South,181,9.0,14.0,41,0.00,,,0.02,133.000000,,2013-02-25 23:01:00,
2013-02-25 17:11:00,50.0,27.0,29.50,South,181,9.0,14.0,41,0.00,,,0.02,133.000000,,2013-02-25 23:11:00,
2013-02-25 17:42:00,46.0,29.0,29.51,South,182,7.0,7.0,51,0.00,,,0.02,7.000000,,2013-02-25 23:42:00,
2013-02-25 17:52:00,46.0,29.0,29.51,South,182,7.0,7.0,51,0.00,,,0.02,7.000000,,2013-02-25 23:52:00,
2013-02-25 18:01:00,46.0,29.0,29.51,South,182,7.0,7.0,51,0.00,,,0.02,7.000000,,2013-02-26 00:01:00,
2013-02-25 18:12:00,46.0,29.0,29.51,South,182,7.0,7.0,51,0.00,,,0.02,7.000000,,2013-02-26 00:12:00,
2013-02-25 18:42:00,43.0,35.0,29.53,South,186,7.0,7.0,75,0.00,,,0.02,-12.000000,,2013-02-26 00:42:00,
2013-02-25 18:52:00,43.0,35.0,29.53,South,186,7.0,7.0,75,0.00,,,0.02,-12.000000,,2013-02-26 00:52:00,
2013-02-25 19:02:00,43.0,35.0,29.53,South,186,7.0,7.0,75,0.00,,,0.02,-12.000000,,2013-02-26 01:02:00,
2013-02-25 19:11:00,43.0,35.0,29.53,South,186,7.0,7.0,75,0.00,,,0.02,-12.000000,,2013-02-26 01:11:00,
2013-02-25 19:42:00,39.0,31.0,29.57,South,187,5.0,7.0,74,0.00,,,0.02,-13.000000,,2013-02-26 01:42:00,
2013-02-25 19:52:00,39.0,31.0,29.57,South,187,5.0,7.0,74,0.00,,,0.02,-13.000000,,2013-02-26 01:52:00,
2013-02-25 20:01:00,39.0,31.0,29.57,South,187,5.0,7.0,74,0.00,,,0.02,-13.000000,,2013-02-26 02:01:00,
2013-02-25 20:11:00,39.0,31.0,29.57,South,187,5.0,7.0,74,0.00,,,0.02,-13.000000,,2013-02-26 02:11:00,
2013-02-25 20:42:00,40.0,32.0,-100.00,South,189,10.0,10.0,73,0.00,,,0.02,-13.000000,,2013-02-26 02:42:00,
2013-02-25 20:52:00,40.0,32.0,-100.00,South,189,10.0,10.0,73,0.00,,,0.02,-13.000000,,2013-02-26 02:52:00,
2013-02-25 21:02:00,40.0,32.0,-100.00,South,189,10.0,10.0,73,0.00,,,0.02,-13.000000,,2013-02-26 03:02:00,
2013-02-25 21:11:00,40.0,32.0,-100.00,South,189,10.0,10.0,73,0.00,,,0.02,-13.000000,,2013-02-26 03:11:00,
2013-02-25 21:42:00,40.0,32.0,-100.00,South,191,10.0,10.0,72,0.00,,,0.02,-14.000000,,2013-02-26 03:42:00,
2013-02-25 21:52:00,40.0,32.0,-100.00,South,191,10.0,10.0,72,0.00,,,0.02,-14.000000,,2013-02-26 03:52:00,
2013-02-25 22:01:00,40.0,32.0,-100.00,South,191,10.0,10.0,72,0.00,,,0.02,-14.000000,,2013-02-26 04:01:00,
2013-02-25 22:11:00,40.0,32.0,-100.00,South,191,10.0,10.0,72,0.00,,,0.02,-14.000000,,2013-02-26 04:11:00,
2013-02-25 22:42:00,39.0,32.0,-100.00,South,191,15.0,15.0,76,0.00,,,0.02,-13.000000,,2013-02-26 04:42:00,
2013-02-25 22:52:00,39.0,32.0,-100.00,South,191,15.0,15.0,76,0.00,,,0.02,-13.000000,,2013-02-26 04:52:00,
2013-02-25 23:01:00,39.0,32.0,-100.00,South,191,15.0,15.0,76,0.00,,,0.02,-13.000000,,2013-02-26 05:01:00,
2013-02-25 23:12:00,39.0,32.0,-100.00,South,191,15.0,15.0,76,0.00,,,0.02,-13.000000,,2013-02-26 05:12:00,
2013-02-25 23:43:00,40.0,33.0,-100.00,South,191,10.0,10.0,75,0.00,,,0.02,-12.000000,,2013-02-26 05:43:00,
2013-02-25 23:52:00,40.0,33.0,-100.00,South,191,10.0,10.0,75,0.00,,,0.02,-12.000000,,2013-02-26 05:52:00,